createdAt,value
2018-04-27T00:01:06.716Z,67.76
2018-04-27T00:03:32.688Z,68.24
2018-04-27T00:06:01.639Z,68.42
2018-04-27T00:08:27.632Z,68.59
2018-04-27T00:10:57.122Z,68.22
2018-04-27T00:13:23.040Z,68.04
2018-04-27T00:15:50.744Z,68.17
2018-04-27T00:18:16.664Z,68.07
2018-04-27T00:20:44.779Z,67.87
2018-04-27T00:23:10.727Z,67.83
2018-04-27T00:25:40.239Z,68.28
2018-04-27T00:28:06.149Z,68.76
2018-04-27T00:30:35.286Z,68.62
2018-04-27T00:33:01.295Z,68.37
2018-04-27T00:35:27.222Z,69.04
2018-04-27T00:37:53.142Z,69.21
2018-04-27T00:40:19.081Z,69.28
2018-04-27T00:42:45.939Z,69.08
2018-04-27T00:45:11.855Z,68.87
2018-04-27T00:47:41.105Z,68.33
2018-04-27T00:50:07.013Z,68.23
2018-04-27T00:52:48.448Z,68.19
2018-04-27T00:55:14.384Z,68.01
2018-04-27T00:57:40.325Z,68.05
2018-04-27T01:00:06.253Z,67.88
2018-04-27T01:02:32.204Z,68.22
2018-04-27T01:04:58.144Z,68.41
2018-04-27T01:07:24.118Z,68.53
2018-04-27T01:09:50.031Z,68.61
2018-04-27T01:12:15.972Z,68.94
2018-04-27T01:14:42.782Z,68.80
2018-04-27T01:17:08.796Z,68.65
2018-04-27T01:19:34.752Z,68.56
2018-04-27T01:22:00.703Z,68.84
2018-04-27T01:24:26.672Z,69.35
2018-04-27T01:26:52.638Z,69.50
2018-04-27T01:29:20.976Z,69.69
2018-04-27T01:31:46.918Z,69.66
2018-04-27T01:34:16.135Z,69.38
2018-04-27T01:36:42.054Z,69.72
2018-04-27T01:39:10.364Z,69.97
2018-04-27T01:41:36.280Z,70.02
2018-04-27T01:44:07.966Z,69.62
2018-04-27T01:46:33.879Z,69.63
2018-04-27T01:48:59.829Z,69.74
2018-04-27T01:51:25.818Z,69.92
2018-04-27T01:53:51.747Z,70.01
2018-04-27T01:56:17.708Z,70.50
2018-04-27T01:58:43.696Z,70.46
2018-04-27T02:01:13.029Z,71.07
2018-04-27T02:03:38.943Z,71.17
2018-04-27T02:06:06.057Z,70.85
2018-04-27T02:08:31.990Z,70.95
2018-04-27T02:11:00.988Z,70.94
2018-04-27T02:13:26.882Z,69.89
2018-04-27T02:15:56.389Z,69.66
2018-04-27T02:18:22.267Z,70.04
2018-04-27T02:20:50.267Z,70.73
2018-04-27T02:23:16.141Z,70.58
2018-04-27T02:25:42.030Z,70.27
2018-04-27T02:28:07.973Z,70.71
2018-04-27T02:30:33.962Z,70.87
2018-04-27T02:33:02.158Z,70.92
2018-04-27T02:35:28.109Z,71.11
2018-04-27T02:37:57.254Z,71.42
2018-04-27T02:40:23.190Z,71.53
2018-04-27T02:42:51.534Z,71.41
2018-04-27T02:45:17.561Z,70.98
2018-04-27T02:47:46.954Z,69.99
2018-04-27T02:50:12.880Z,70.13
2018-04-27T02:52:41.844Z,71.84
2018-04-27T02:55:07.749Z,71.85
2018-04-27T02:57:35.488Z,72.14
2018-04-27T03:00:01.417Z,72.58
2018-04-27T03:02:27.289Z,71.97
2018-04-27T03:04:53.240Z,70.36
2018-04-27T03:07:19.215Z,70.10
2018-04-27T03:09:48.233Z,70.57
2018-04-27T03:12:14.139Z,70.94
2018-04-27T03:14:43.505Z,70.69
2018-04-27T03:17:09.441Z,71.75
2018-04-27T03:19:36.510Z,72.20
2018-04-27T03:22:02.408Z,72.17
2018-04-27T03:24:31.281Z,71.81
2018-04-27T03:26:57.162Z,71.60
2018-04-27T03:29:25.915Z,71.62
2018-04-27T03:31:51.822Z,71.63
2018-04-27T03:34:20.532Z,71.75
2018-04-27T03:36:46.428Z,71.98
2018-04-27T03:39:12.357Z,72.84
2018-04-27T03:41:38.244Z,73.43
2018-04-27T03:44:10.230Z,72.76
2018-04-27T03:46:36.143Z,72.46
2018-04-27T03:49:02.072Z,72.26
2018-04-27T03:51:28.016Z,72.05
2018-04-27T03:53:53.937Z,72.21
2018-04-27T03:56:21.979Z,72.13
2018-04-27T03:58:47.947Z,72.02
2018-04-27T04:01:29.868Z,72.26
2018-04-27T04:04:08.155Z,72.23
2018-04-27T04:06:34.014Z,72.22
2018-04-27T04:08:59.936Z,72.35
2018-04-27T04:11:25.833Z,72.33
2018-04-27T04:13:51.727Z,72.39
2018-04-27T04:16:17.632Z,72.58
2018-04-27T04:18:43.519Z,72.88
2018-04-27T04:21:09.451Z,73.47
2018-04-27T04:23:35.450Z,73.47
2018-04-27T04:26:01.514Z,73.78
2018-04-27T04:28:27.435Z,73.89
2018-04-27T04:30:53.314Z,73.59
2018-04-27T04:33:19.225Z,73.22
2018-04-27T04:35:45.105Z,73.05
2018-04-27T04:38:10.953Z,72.94
2018-04-27T04:40:36.898Z,73.12
2018-04-27T04:43:02.816Z,72.92
2018-04-27T04:45:28.705Z,73.46
2018-04-27T04:47:54.617Z,73.93
2018-04-27T04:50:20.521Z,73.25
2018-04-27T04:52:46.455Z,72.70
2018-04-27T04:55:12.395Z,72.77
2018-04-27T04:57:38.296Z,72.53
2018-04-27T05:00:04.274Z,73.87
2018-04-27T05:02:30.144Z,73.60
2018-04-27T05:04:57.587Z,73.19
2018-04-27T05:07:23.491Z,73.60
2018-04-27T05:09:52.619Z,73.54
2018-04-27T05:12:18.524Z,73.63
2018-04-27T05:14:48.579Z,73.63
2018-04-27T05:17:14.459Z,73.71
2018-04-27T05:19:43.759Z,73.95
2018-04-27T05:22:09.616Z,73.90
2018-04-27T05:24:37.046Z,74.15
2018-04-27T05:27:02.985Z,73.66
2018-04-27T05:29:28.861Z,72.38
2018-04-27T05:31:54.803Z,71.43
2018-04-27T05:34:20.780Z,72.25
2018-04-27T05:36:48.167Z,72.58
2018-04-27T05:39:14.098Z,72.25
2018-04-27T05:41:42.824Z,72.64
2018-04-27T05:44:08.706Z,72.93
2018-04-27T05:46:37.565Z,72.28
2018-04-27T05:49:03.491Z,71.52
2018-04-27T05:51:32.286Z,71.14
2018-04-27T05:53:58.317Z,70.94
2018-04-27T05:56:27.855Z,70.08
2018-04-27T05:58:53.755Z,69.48
2018-04-27T06:01:23.119Z,69.11
2018-04-27T06:04:01.319Z,68.72
2018-04-27T06:06:27.216Z,68.25
2018-04-27T06:08:53.116Z,68.18
2018-04-27T06:11:19.026Z,68.09
2018-04-27T06:13:44.939Z,67.99
2018-04-27T06:16:10.879Z,67.93
2018-04-27T06:18:36.827Z,67.26
2018-04-27T06:21:02.745Z,66.08
2018-04-27T06:23:28.654Z,65.64
2018-04-27T06:25:54.553Z,65.39
2018-04-27T06:28:20.495Z,65.75
2018-04-27T06:30:46.420Z,65.48
2018-04-27T06:33:12.711Z,64.13
2018-04-27T06:35:38.604Z,63.04
2018-04-27T06:38:07.871Z,63.17
2018-04-27T06:40:33.791Z,63.09
2018-04-27T06:42:59.687Z,60.33
2018-04-27T06:45:25.581Z,60.04
2018-04-27T06:47:51.531Z,60.09
2018-04-27T06:50:19.415Z,55.80
2018-04-27T06:52:45.280Z,55.61
2018-04-27T06:55:14.431Z,55.62
2018-04-27T06:57:40.315Z,53.90
2018-04-27T07:00:09.443Z,53.33
2018-04-27T07:02:35.478Z,52.10
2018-04-27T07:05:03.021Z,50.76
2018-04-27T07:07:28.931Z,51.17
2018-04-27T07:09:58.160Z,50.51
2018-04-27T07:12:24.053Z,49.70
2018-04-27T07:14:53.772Z,48.48
2018-04-27T07:17:19.667Z,48.15
2018-04-27T07:19:45.552Z,46.73
2018-04-27T07:22:11.464Z,45.83
2018-04-27T07:24:37.374Z,44.71
2018-04-27T07:27:04.308Z,43.38
2018-04-27T07:29:30.251Z,43.42
2018-04-27T07:31:59.728Z,43.98
2018-04-27T07:34:25.589Z,44.12
2018-04-27T07:36:54.642Z,44.91
2018-04-27T07:39:20.550Z,44.84
2018-04-27T07:41:48.591Z,43.66
2018-04-27T07:44:14.491Z,45.47
2018-04-27T07:46:43.619Z,43.59
2018-04-27T07:49:09.534Z,43.50
2018-04-27T07:51:39.318Z,43.57
2018-04-27T07:54:05.670Z,42.74
2018-04-27T07:56:32.094Z,43.19
2018-04-27T07:58:58.080Z,42.89
2018-04-27T08:01:24.028Z,42.75
2018-04-27T08:03:49.914Z,44.96
2018-04-27T08:06:15.847Z,45.74
2018-04-27T08:08:45.004Z,42.49
2018-04-27T08:11:10.904Z,41.62
2018-04-27T08:13:39.272Z,43.04
2018-04-27T08:16:05.336Z,41.34
2018-04-27T08:18:34.380Z,40.23
2018-04-27T08:21:00.544Z,41.01
2018-04-27T08:23:30.324Z,41.31
2018-04-27T08:25:56.266Z,41.56
2018-04-27T08:28:23.504Z,38.57
2018-04-27T08:30:49.426Z,39.29
2018-04-27T08:33:15.346Z,38.48
2018-04-27T08:35:41.271Z,38.73
2018-04-27T08:38:07.348Z,40.17
2018-04-27T08:40:36.612Z,39.52
2018-04-27T08:43:02.523Z,38.16
2018-04-27T08:45:29.658Z,38.89
2018-04-27T08:47:55.510Z,39.25
2018-04-27T08:50:24.916Z,39.93
2018-04-27T08:52:50.812Z,38.61
2018-04-27T08:55:20.686Z,38.22
2018-04-27T08:57:46.609Z,39.69
2018-04-27T09:00:13.728Z,39.97
2018-04-27T09:02:39.704Z,39.72
2018-04-27T09:05:08.552Z,39.90
2018-04-27T09:07:34.463Z,39.35
2018-04-27T09:10:00.359Z,39.52
2018-04-27T09:12:26.275Z,39.17
2018-04-27T09:14:52.638Z,39.32
2018-04-27T09:17:20.233Z,39.97
2018-04-27T09:19:46.153Z,39.74
2018-04-27T09:22:15.172Z,38.29
2018-04-27T09:24:41.077Z,38.81
2018-04-27T09:27:10.487Z,38.54
2018-04-27T09:29:36.359Z,39.88
2018-04-27T09:32:04.416Z,38.43
2018-04-27T09:34:30.329Z,38.89
2018-04-27T09:36:59.500Z,39.72
2018-04-27T09:39:25.479Z,37.34
2018-04-27T09:41:54.672Z,38.56
2018-04-27T09:44:20.584Z,38.40
2018-04-27T09:46:46.505Z,38.16
2018-04-27T09:49:12.527Z,38.28
2018-04-27T09:51:38.459Z,36.75
2018-04-27T09:54:06.261Z,36.94
2018-04-27T09:56:32.751Z,37.43
2018-04-27T09:59:00.651Z,38.54
2018-04-27T10:01:26.546Z,37.73
2018-04-27T10:03:56.198Z,37.54
2018-04-27T10:06:22.095Z,37.77
2018-04-27T10:08:49.803Z,37.93
2018-04-27T10:11:15.708Z,37.64
2018-04-27T10:13:45.139Z,36.47
2018-04-27T10:16:11.028Z,37.25
2018-04-27T10:18:40.560Z,35.39
2018-04-27T10:21:06.483Z,34.83
2018-04-27T10:23:32.359Z,36.45
2018-04-27T10:25:58.387Z,35.57
2018-04-27T10:28:24.292Z,34.79
2018-04-27T10:30:51.298Z,34.26
2018-04-27T10:33:17.185Z,34.94
2018-04-27T10:35:46.450Z,34.12
2018-04-27T10:38:12.362Z,34.61
2018-04-27T10:40:41.690Z,35.55
2018-04-27T10:43:07.601Z,35.06
2018-04-27T10:45:36.871Z,34.76
2018-04-27T10:48:03.028Z,34.91
2018-04-27T10:50:29.806Z,35.20
2018-04-27T10:52:55.757Z,35.86
2018-04-27T10:55:24.532Z,33.26
2018-04-27T10:57:50.444Z,33.48
2018-04-27T11:00:16.429Z,34.40
2018-04-27T11:02:43.214Z,32.82
2018-04-27T11:05:09.134Z,32.45
2018-04-27T11:07:36.150Z,32.11
2018-04-27T11:10:02.100Z,31.50
2018-04-27T11:12:31.201Z,32.66
2018-04-27T11:14:57.130Z,31.97
2018-04-27T11:17:26.719Z,32.79
2018-04-27T11:19:52.725Z,32.17
2018-04-27T11:22:20.679Z,31.89
2018-04-27T11:24:46.605Z,30.60
2018-04-27T11:27:15.648Z,30.67
2018-04-27T11:29:41.530Z,30.92
2018-04-27T11:32:10.706Z,31.33
2018-04-27T11:34:36.637Z,32.28
2018-04-27T11:37:02.552Z,31.83
2018-04-27T11:39:28.448Z,28.15
2018-04-27T11:41:54.338Z,29.84
2018-04-27T11:44:23.373Z,29.52
2018-04-27T11:46:49.242Z,29.87
2018-04-27T11:49:16.359Z,31.30
2018-04-27T11:51:42.320Z,29.58
2018-04-27T11:54:11.512Z,27.32
2018-04-27T11:56:37.416Z,28.54
2018-04-27T11:59:06.548Z,28.32
2018-04-27T12:01:32.529Z,28.44
2018-04-27T12:04:01.601Z,30.40
2018-04-27T12:06:27.517Z,29.78
2018-04-27T12:08:55.170Z,29.00
2018-04-27T12:11:21.086Z,29.87
2018-04-27T12:13:46.977Z,28.10
2018-04-27T12:16:12.911Z,29.36
2018-04-27T12:18:38.809Z,30.23
2018-04-27T12:21:07.099Z,30.07
2018-04-27T12:23:32.983Z,28.57
2018-04-27T12:26:02.132Z,28.73
2018-04-27T12:28:27.991Z,29.84
2018-04-27T12:30:57.955Z,30.14
2018-04-27T12:33:23.857Z,29.69
2018-04-27T12:35:50.996Z,29.24
2018-04-27T12:38:17.018Z,29.54
2018-04-27T12:40:46.232Z,30.28
2018-04-27T12:43:12.217Z,30.69
2018-04-27T12:45:41.431Z,29.61
2018-04-27T12:48:07.396Z,28.73
2018-04-27T12:50:33.321Z,28.78
2018-04-27T12:52:59.193Z,29.13
2018-04-27T12:55:25.164Z,30.07
2018-04-27T12:57:52.204Z,29.71
2018-04-27T13:00:18.134Z,29.45
2018-04-27T13:02:47.015Z,29.74
2018-04-27T13:05:12.943Z,29.17
2018-04-27T13:07:42.327Z,29.90
2018-04-27T13:10:08.273Z,29.44
2018-04-27T13:12:37.402Z,29.42
2018-04-27T13:15:03.867Z,29.17
2018-04-27T13:17:31.134Z,29.29
2018-04-27T13:19:57.054Z,27.32
2018-04-27T13:22:26.087Z,27.77
2018-04-27T13:24:51.943Z,28.85
2018-04-27T13:27:17.852Z,27.23
2018-04-27T13:29:43.783Z,28.77
2018-04-27T13:32:09.679Z,26.66
2018-04-27T13:34:39.333Z,27.94
2018-04-27T13:37:05.232Z,28.09
2018-04-27T13:39:32.924Z,27.61
2018-04-27T13:41:58.840Z,26.92
2018-04-27T13:44:28.082Z,27.10
2018-04-27T13:46:53.973Z,27.15
2018-04-27T13:49:21.831Z,27.01
2018-04-27T13:51:47.762Z,26.84
2018-04-27T13:54:17.156Z,26.55
2018-04-27T13:56:43.082Z,26.94
2018-04-27T13:59:12.005Z,25.18
2018-04-27T14:01:37.919Z,25.53
2018-04-27T14:04:03.848Z,25.49
2018-04-27T14:06:29.739Z,25.49
2018-04-27T14:08:55.699Z,26.03
2018-04-27T14:11:23.520Z,26.58
2018-04-27T14:13:49.478Z,27.53
2018-04-27T14:16:18.773Z,27.42
2018-04-27T14:18:44.804Z,27.53
2018-04-27T14:21:14.264Z,27.08
2018-04-27T14:23:40.152Z,27.86
2018-04-27T14:26:07.369Z,27.60
2018-04-27T14:28:33.248Z,28.31
2018-04-27T14:31:02.549Z,27.93
2018-04-27T14:33:28.509Z,27.40
2018-04-27T14:35:58.071Z,27.12
2018-04-27T14:38:23.988Z,26.44
2018-04-27T14:40:49.928Z,27.60
2018-04-27T14:43:15.819Z,26.61
2018-04-27T14:45:41.769Z,27.93
2018-04-27T14:48:08.836Z,26.44
2018-04-27T14:50:34.795Z,26.04
2018-04-27T14:53:03.824Z,25.00
2018-04-27T14:55:29.686Z,25.46
2018-04-27T14:57:58.686Z,26.24
2018-04-27T15:00:24.632Z,27.15
2018-04-27T15:02:52.516Z,27.65
2018-04-27T15:05:18.401Z,28.65
2018-04-27T15:07:47.436Z,28.73
2018-04-27T15:10:13.502Z,28.89
2018-04-27T15:12:42.898Z,29.17
2018-04-27T15:15:08.832Z,29.36
2018-04-27T15:17:34.793Z,29.18
2018-04-27T15:20:00.705Z,28.71
2018-04-27T15:22:26.598Z,28.52
2018-04-27T15:24:53.284Z,29.58
2018-04-27T15:27:19.209Z,29.61
2018-04-27T15:29:48.160Z,29.20
2018-04-27T15:32:14.075Z,28.80
2018-04-27T15:34:43.451Z,29.15
2018-04-27T15:37:09.338Z,28.97
2018-04-27T15:39:38.612Z,28.64
2018-04-27T15:42:04.510Z,29.18
2018-04-27T15:44:32.424Z,28.91
2018-04-27T15:46:58.420Z,28.97
2018-04-27T15:49:27.692Z,29.70
2018-04-27T15:51:53.695Z,30.92
2018-04-27T15:54:19.626Z,30.90
2018-04-27T15:56:45.550Z,30.73
2018-04-27T15:59:11.470Z,31.06
2018-04-27T16:01:39.443Z,30.75
2018-04-27T16:04:09.263Z,31.01
2018-04-27T16:06:36.081Z,31.27
2018-04-27T16:09:02.070Z,31.27
2018-04-27T16:11:28.059Z,30.61
2018-04-27T16:13:53.937Z,30.12
2018-04-27T16:16:23.076Z,29.74
2018-04-27T16:18:49.017Z,28.44
2018-04-27T16:21:19.052Z,28.02
2018-04-27T16:23:44.923Z,28.68
2018-04-27T16:26:13.725Z,28.32
2018-04-27T16:28:39.669Z,28.11
2018-04-27T16:31:05.620Z,28.42
2018-04-27T16:33:31.499Z,28.03
2018-04-27T16:35:57.435Z,27.81
2018-04-27T16:38:24.144Z,27.06
2018-04-27T16:40:50.083Z,28.95
2018-04-27T16:43:19.199Z,29.79
2018-04-27T16:45:45.127Z,29.17
2018-04-27T16:48:14.186Z,29.15
2018-04-27T16:50:40.106Z,28.98
2018-04-27T16:53:08.492Z,28.56
2018-04-27T16:55:34.456Z,29.14
2018-04-27T16:58:03.593Z,29.30
2018-04-27T17:00:29.547Z,29.90
2018-04-27T17:02:58.835Z,30.74
2018-04-27T17:05:24.745Z,30.98
2018-04-27T17:07:50.650Z,31.76
2018-04-27T17:10:16.567Z,31.72
2018-04-27T17:12:42.591Z,32.21
2018-04-27T17:15:09.398Z,32.40
2018-04-27T17:17:35.387Z,33.23
2018-04-27T17:20:04.537Z,32.57
2018-04-27T17:22:30.486Z,31.51
2018-04-27T17:24:59.484Z,30.74
2018-04-27T17:27:25.402Z,29.42
2018-04-27T17:29:54.477Z,31.69
2018-04-27T17:32:20.404Z,35.28
2018-04-27T17:34:48.130Z,36.53
2018-04-27T17:37:14.228Z,37.95
2018-04-27T17:39:43.641Z,35.28
2018-04-27T17:42:09.546Z,33.47
2018-04-27T17:44:35.487Z,33.81
2018-04-27T17:47:01.836Z,35.38
2018-04-27T17:49:27.780Z,36.33
2018-04-27T17:51:55.127Z,36.06
2018-04-27T17:54:21.059Z,36.82
2018-04-27T17:56:50.194Z,37.07
2018-04-27T17:59:16.082Z,37.44
2018-04-27T18:01:44.031Z,38.13
2018-04-27T18:04:09.935Z,38.31
2018-04-27T18:06:38.673Z,38.42
2018-04-27T18:09:04.624Z,38.05
2018-04-27T18:11:33.133Z,39.64
2018-04-27T18:13:59.567Z,39.66
2018-04-27T18:16:29.450Z,40.66
2018-04-27T18:18:55.375Z,40.30
2018-04-27T18:21:21.303Z,40.42
2018-04-27T18:23:47.271Z,40.62
2018-04-27T18:26:13.215Z,40.84
2018-04-27T18:28:40.056Z,41.25
2018-04-27T18:31:06.329Z,41.76
2018-04-27T18:33:36.110Z,42.50
2018-04-27T18:36:02.031Z,42.75
2018-04-27T18:38:31.167Z,42.91
2018-04-27T18:40:57.087Z,43.35
2018-04-27T18:43:24.216Z,44.38
2018-04-27T18:45:50.119Z,43.86
2018-04-27T18:48:20.646Z,44.18
2018-04-27T18:50:47.482Z,44.05
2018-04-27T18:53:13.412Z,44.66
2018-04-27T18:55:39.347Z,45.24
2018-04-27T18:58:05.292Z,45.80
2018-04-27T19:00:31.232Z,46.34
2018-04-27T19:02:57.292Z,45.43
2018-04-27T19:05:26.943Z,45.62
2018-04-27T19:07:54.944Z,47.01
2018-04-27T19:10:20.861Z,47.15
2018-04-27T19:12:46.781Z,46.96
2018-04-27T19:15:14.989Z,47.22
2018-04-27T19:17:40.993Z,47.54
2018-04-27T19:20:10.024Z,47.78
2018-04-27T19:22:35.968Z,48.04
2018-04-27T19:25:03.844Z,48.51
2018-04-27T19:27:29.782Z,48.97
2018-04-27T19:29:58.849Z,49.03
2018-04-27T19:32:24.795Z,49.82
2018-04-27T19:34:50.704Z,50.20
2018-04-27T19:37:16.641Z,50.17
2018-04-27T19:39:42.582Z,50.66
2018-04-27T19:42:12.203Z,50.80
2018-04-27T19:44:38.127Z,50.70
2018-04-27T19:47:05.669Z,50.86
2018-04-27T19:49:31.597Z,51.59
2018-04-27T19:52:00.559Z,52.08
2018-04-27T19:54:26.512Z,51.84
2018-04-27T19:56:56.462Z,51.27
2018-04-27T19:59:22.339Z,50.82
2018-04-27T20:04:23.360Z,50.58
2018-04-27T20:06:49.319Z,50.04
2018-04-27T20:09:15.223Z,49.98
2018-04-27T20:11:41.275Z,50.07
2018-04-27T20:14:08.003Z,50.01
2018-04-27T20:16:36.003Z,50.11
2018-04-27T20:19:01.991Z,51.20
2018-04-27T20:21:28.019Z,50.97
2018-04-27T20:23:53.971Z,48.60
2018-04-27T20:26:19.928Z,47.63
2018-04-27T20:28:45.843Z,47.47
2018-04-27T20:31:11.799Z,47.31
2018-04-27T20:33:41.155Z,46.61
2018-04-27T20:36:07.069Z,46.21
2018-04-27T20:38:36.298Z,45.35
2018-04-27T20:41:02.271Z,45.68
2018-04-27T20:43:31.273Z,47.50
2018-04-27T20:45:57.186Z,48.80
2018-04-27T20:48:24.800Z,48.98
2018-04-27T20:50:54.567Z,48.50
2018-04-27T20:53:20.518Z,48.32
2018-04-27T20:55:46.470Z,47.90
2018-04-27T20:58:12.385Z,47.78
2018-04-27T21:00:38.319Z,47.80
2018-04-27T21:03:05.503Z,47.89
2018-04-27T21:05:31.438Z,47.65
2018-04-27T21:07:57.437Z,47.15
2018-04-27T21:10:26.587Z,46.63
2018-04-27T21:12:53.484Z,46.54
2018-04-27T21:15:21.887Z,46.63
2018-04-27T21:17:49.230Z,46.86
2018-04-27T21:20:18.977Z,47.11
2018-04-27T21:22:44.945Z,48.35
2018-04-27T21:25:10.906Z,48.42
2018-04-27T21:27:40.545Z,48.82
2018-04-27T21:30:06.578Z,46.93
2018-04-27T21:32:32.527Z,46.61
2018-04-27T21:34:58.431Z,46.67
2018-04-27T21:37:24.366Z,46.25
2018-04-27T21:39:50.373Z,46.81
2018-04-27T21:42:20.122Z,46.85
2018-04-27T21:44:46.079Z,47.34
2018-04-27T21:47:11.985Z,47.15
2018-04-27T21:49:37.909Z,47.92
2018-04-27T21:52:09.031Z,48.43
2018-04-27T21:54:34.956Z,48.55
2018-04-27T21:57:02.911Z,49.25
2018-04-27T21:59:41.675Z,49.24
2018-04-27T22:02:08.517Z,49.81
2018-04-27T22:04:34.511Z,50.08
2018-04-27T22:07:00.484Z,50.83
2018-04-27T22:09:26.393Z,50.83
2018-04-27T22:11:52.395Z,50.75
2018-04-27T22:14:37.200Z,50.74
2018-04-27T22:17:09.840Z,50.71
2018-04-27T22:19:35.758Z,50.89
2018-04-27T22:22:01.675Z,50.62
2018-04-27T22:24:27.605Z,50.15
2018-04-27T22:26:55.533Z,49.92
2018-04-27T22:32:32.191Z,51.46
2018-04-27T22:34:58.081Z,51.86
2018-04-27T22:37:24.026Z,52.30
2018-04-27T22:40:02.953Z,52.33
2018-04-27T22:42:28.918Z,52.43
2018-04-27T22:48:07.418Z,52.30
2018-04-27T22:50:33.345Z,51.92
2018-04-27T22:52:59.226Z,52.07
2018-04-27T22:55:25.140Z,52.21
2018-04-27T23:00:47.524Z,53.11
2018-04-27T23:03:15.461Z,53.18
2018-04-27T23:05:41.411Z,53.19
2018-04-27T23:08:08.308Z,52.60
2018-04-27T23:10:42.158Z,52.21
2018-04-27T23:13:08.129Z,53.13
2018-04-27T23:15:35.907Z,52.63
2018-04-27T23:18:01.824Z,53.29
2018-04-27T23:20:30.719Z,53.34
2018-04-27T23:22:58.509Z,53.72
2018-04-27T23:25:24.444Z,53.73
2018-04-27T23:27:50.393Z,53.70
2018-04-27T23:30:18.043Z,53.84
2018-04-27T23:32:44.011Z,53.48
2018-04-27T23:35:09.923Z,53.56
2018-04-27T23:37:35.893Z,53.80
2018-04-27T23:40:01.821Z,53.71
2018-04-27T23:42:27.918Z,53.93
2018-04-27T23:44:53.883Z,53.84
2018-04-27T23:47:19.835Z,53.97
2018-04-27T23:49:45.791Z,54.53
2018-04-27T23:52:11.728Z,54.85
2018-04-27T23:54:37.669Z,54.53
2018-04-27T23:57:03.698Z,54.65
2018-04-27T23:59:34.543Z,54.75
